Time;durP1;ratioP1;P1;durP2;ratioP2;P2;SDS_P1;SDS_P2;PMS_P1;PMS_P2;Temp;Humidity;BMP_temperature;BMP_pressure;BME280_temperature;BME280_humidity;BME280_pressure;Samples;Min_cycle;Max_cycle;Signal;HPM_P1;HPM_P2
2023/10/25 00:00:07;;;;;;;3.65;0.80;;;11.30;99.90;;;;;;5022586;28;20040;-74
2023/10/25 00:02:33;;;;;;;2.35;0.70;;;11.40;99.90;;;;;;5002751;28;20657;-75
2023/10/25 00:04:58;;;;;;;5.93;1.20;;;11.40;99.90;;;;;;5025506;28;20021;-74
2023/10/25 00:07:24;;;;;;;4.68;0.88;;;11.50;99.90;;;;;;5013411;28;20412;-74
2023/10/25 00:09:50;;;;;;;5.18;0.60;;;11.50;99.90;;;;;;5018492;28;20037;-74
2023/10/25 00:12:15;;;;;;;4.53;0.77;;;11.50;99.90;;;;;;5009121;28;20052;-74
2023/10/25 00:14:41;;;;;;;7.40;0.90;;;11.50;99.90;;;;;;5023956;28;20694;-74
2023/10/25 00:17:07;;;;;;;1.92;0.73;;;11.50;99.90;;;;;;5005526;28;20433;-74
2023/10/25 00:19:33;;;;;;;4.18;1.05;;;11.50;99.90;;;;;;5026654;28;20464;-74
2023/10/25 00:21:59;;;;;;;5.20;0.90;;;11.60;99.90;;;;;;5011717;28;20033;-74
2023/10/25 00:24:24;;;;;;;6.07;0.90;;;11.60;99.90;;;;;;5027440;28;20485;-74
2023/10/25 00:26:50;;;;;;;5.03;0.63;;;11.60;99.90;;;;;;5026599;28;20109;-74
2023/10/25 00:29:16;;;;;;;4.40;0.93;;;11.60;99.90;;;;;;5005233;28;20825;-74
2023/10/25 00:31:42;;;;;;;6.68;1.42;;;11.60;99.90;;;;;;5024943;28;20045;-75
2023/10/25 00:34:08;;;;;;;4.88;1.00;;;11.70;99.90;;;;;;5006775;28;20036;-75
2023/10/25 00:36:34;;;;;;;7.68;1.10;;;11.70;99.90;;;;;;5016497;28;20033;-77
2023/10/25 00:38:59;;;;;;;3.65;1.20;;;11.60;99.90;;;;;;5007727;28;20367;-76
2023/10/25 00:41:25;;;;;;;3.53;1.30;;;11.60;99.90;;;;;;5037932;28;20040;-75
2023/10/25 00:43:51;;;;;;;3.72;1.30;;;11.70;99.90;;;;;;5014983;28;20091;-75
2023/10/25 00:46:22;;;;;;;5.28;1.08;;;11.70;99.90;;;;;;5026934;28;20517;-75
2023/10/25 00:48:51;;;;;;;8.40;1.42;;;11.70;99.90;;;;;;5009278;28;20572;-74
2023/10/25 00:51:19;;;;;;;11.77;1.67;;;11.80;99.90;;;;;;5028658;28;20061;-74
2023/10/25 00:53:54;;;;;;;6.00;1.38;;;11.80;99.90;;;;;;5020641;28;20041;-74
2023/10/25 00:56:23;;;;;;;6.00;1.42;;;11.80;99.90;;;;;;5023949;28;20029;-74
2023/10/25 00:58:51;;;;;;;5.55;1.98;;;11.80;99.90;;;;;;5016278;28;20174;-74
2023/10/25 01:01:19;;;;;;;7.90;1.55;;;11.80;99.90;;;;;;5026209;28;20133;-74
2023/10/25 01:03:45;;;;;;;9.95;1.00;;;11.80;99.90;;;;;;5008488;28;20775;-74
2023/10/25 01:06:11;;;;;;;5.65;1.17;;;11.90;99.90;;;;;;5029122;28;20037;-74
2023/10/25 01:08:37;;;;;;;6.88;0.68;;;12.10;99.90;;;;;;5012731;28;20912;-74
2023/10/25 01:11:03;;;;;;;6.05;1.02;;;12.20;99.90;;;;;;5023441;28;20032;-74
2023/10/25 01:13:29;;;;;;;5.10;1.50;;;12.30;99.90;;;;;;5019275;28;20032;-75
2023/10/25 01:15:54;;;;;;;4.63;1.20;;;12.20;99.90;;;;;;5017309;28;20567;-75
2023/10/25 01:18:20;;;;;;;5.80;1.10;;;12.20;99.90;;;;;;5027656;28;20045;-75
2023/10/25 01:20:46;;;;;;;7.20;0.85;;;12.20;99.90;;;;;;5015838;28;20075;-75
2023/10/25 01:23:12;;;;;;;2.65;0.40;;;12.30;99.90;;;;;;5024527;28;20029;-75
2023/10/25 01:25:39;;;;;;;4.88;0.80;;;12.50;99.90;;;;;;5018833;28;20025;-75
2023/10/25 01:28:05;;;;;;;7.00;1.23;;;12.50;99.90;;;;;;5024996;28;20718;-75
2023/10/25 01:30:30;;;;;;;6.40;0.85;;;12.40;99.90;;;;;;5013022;28;21102;-75
2023/10/25 01:32:58;;;;;;;6.07;1.27;;;12.30;99.90;;;;;;5027216;28;20029;-75
2023/10/25 01:35:24;;;;;;;2.53;1.00;;;12.30;99.90;;;;;;5009624;28;20052;-76
2023/10/25 01:37:50;;;;;;;3.75;1.10;;;12.20;99.90;;;;;;5020728;28;20489;-76
2023/10/25 01:40:16;;;;;;;9.20;1.23;;;12.20;99.90;;;;;;5012323;28;20049;-77
2023/10/25 01:42:43;;;;;;;6.80;1.35;;;12.20;99.90;;;;;;5018430;28;20041;-76
2023/10/25 01:45:09;;;;;;;4.53;1.23;;;12.10;99.90;;;;;;5010849;28;20402;-76
2023/10/25 01:47:35;;;;;;;4.32;1.33;;;12.00;99.90;;;;;;5030450;28;20037;-76
2023/10/25 01:50:00;;;;;;;4.30;1.10;;;12.00;99.90;;;;;;5010561;28;20065;-75
2023/10/25 01:52:26;;;;;;;3.72;1.33;;;11.90;99.90;;;;;;5038660;28;20040;-75
2023/10/25 01:54:52;;;;;;;3.95;1.65;;;11.90;99.90;;;;;;5018224;28;20095;-75
2023/10/25 01:57:18;;;;;;;3.28;1.20;;;11.90;99.90;;;;;;5020944;28;20045;-74
2023/10/25 01:59:44;;;;;;;7.50;1.83;;;11.90;99.90;;;;;;5031078;28;20048;-74
2023/10/25 02:02:10;;;;;;;6.35;1.52;;;11.80;99.90;;;;;;4998732;28;20099;-74
2023/10/25 02:04:36;;;;;;;7.72;1.70;;;11.80;99.90;;;;;;5019691;28;20033;-74
2023/10/25 02:07:02;;;;;;;6.18;1.20;;;11.80;99.90;;;;;;5010198;28;20088;-74
2023/10/25 02:09:28;;;;;;;7.05;1.60;;;11.80;99.90;;;;;;5024582;28;20371;-73
2023/10/25 02:11:54;;;;;;;5.40;1.65;;;11.70;99.90;;;;;;5009844;28;20096;-74
2023/10/25 02:14:19;;;;;;;4.05;1.70;;;11.80;99.90;;;;;;5023466;28;20073;-74
2023/10/25 02:16:45;;;;;;;3.83;1.70;;;11.70;99.90;;;;;;5010358;28;20559;-74
2023/10/25 02:19:10;;;;;;;6.03;1.85;;;11.70;99.90;;;;;;5026853;28;20478;-74
2023/10/25 02:21:36;;;;;;;8.90;1.50;;;11.70;99.90;;;;;;5012675;28;20501;-75
2023/10/25 02:24:03;;;;;;;3.08;1.40;;;11.70;99.90;;;;;;5026526;28;20037;-74
2023/10/25 02:26:29;;;;;;;3.22;1.30;;;11.70;99.90;;;;;;5031709;28;20033;-74
2023/10/25 02:28:55;;;;;;;6.03;1.35;;;11.70;99.90;;;;;;5026640;28;20044;-75
2023/10/25 02:31:21;;;;;;;6.53;1.60;;;11.70;99.90;;;;;;5014228;28;20036;-75
2023/10/25 02:33:47;;;;;;;5.32;1.20;;;11.70;99.90;;;;;;5027202;28;20093;-75
2023/10/25 02:36:13;;;;;;;3.50;1.30;;;11.70;99.90;;;;;;5017401;28;20044;-76
2023/10/25 02:38:39;;;;;;;3.70;1.25;;;11.70;99.90;;;;;;5024618;28;20036;-75
2023/10/25 02:41:05;;;;;;;3.38;1.35;;;11.70;99.90;;;;;;5030738;28;20049;-75
2023/10/25 02:43:30;;;;;;;4.35;1.33;;;11.70;99.90;;;;;;5005166;28;20083;-75
2023/10/25 02:46:07;;;;;;;4.53;1.35;;;11.70;99.90;;;;;;5024281;28;20053;-74
2023/10/25 02:48:33;;;;;;;0.93;0.90;;;11.70;99.90;;;;;;5023231;28;20050;-74
2023/10/25 02:51:00;;;;;;;7.28;1.20;;;11.70;99.90;;;;;;5033103;28;20097;-75
2023/10/25 02:53:26;;;;;;;4.78;1.35;;;11.60;99.90;;;;;;5020325;28;20059;-77
2023/10/25 02:56:01;;;;;;;3.67;1.42;;;11.60;99.90;;;;;;5032955;28;20565;-76
2023/10/25 02:58:28;;;;;;;3.53;1.30;;;11.60;99.90;;;;;;5026458;28;20041;-75
2023/10/25 03:00:54;;;;;;;5.15;1.77;;;11.60;99.90;;;;;;5040490;28;20037;-75
2023/10/25 03:03:20;;;;;;;2.50;1.15;;;11.60;99.90;;;;;;5018322;28;20126;-74
2023/10/25 03:05:45;;;;;;;4.90;1.15;;;11.50;99.90;;;;;;5030101;28;20428;-74
2023/10/25 03:08:11;;;;;;;2.67;1.13;;;11.50;99.90;;;;;;5011451;28;20506;-74
2023/10/25 03:10:36;;;;;;;3.33;1.23;;;11.50;99.90;;;;;;5023666;28;20472;-73
2023/10/25 03:13:02;;;;;;;4.32;1.25;;;11.50;99.90;;;;;;5010252;28;20469;-74
2023/10/25 03:15:28;;;;;;;1.73;1.10;;;11.50;99.90;;;;;;5019445;28;20039;-73
2023/10/25 03:17:54;;;;;;;2.25;0.88;;;11.50;99.90;;;;;;5006115;28;20032;-73
2023/10/25 03:20:20;;;;;;;1.75;1.20;;;11.50;99.90;;;;;;5036240;28;20284;-73
2023/10/25 03:22:46;;;;;;;4.28;1.25;;;11.50;99.90;;;;;;5042493;28;21166;-75
2023/10/25 03:25:11;;;;;;;3.75;1.10;;;11.50;99.90;;;;;;5032968;28;20032;-74
2023/10/25 03:27:37;;;;;;;5.43;1.48;;;11.50;99.90;;;;;;5035415;28;20041;-73
2023/10/25 03:30:03;;;;;;;4.22;0.93;;;11.50;99.90;;;;;;5015044;28;20665;-73
2023/10/25 03:32:29;;;;;;;3.50;0.82;;;11.60;99.90;;;;;;5024762;28;20049;-73
2023/10/25 03:34:55;;;;;;;2.13;0.82;;;11.60;99.90;;;;;;5008624;28;20156;-73
2023/10/25 03:37:21;;;;;;;3.30;0.80;;;11.60;99.90;;;;;;5021795;28;20029;-73
2023/10/25 03:39:47;;;;;;;2.72;0.70;;;11.70;99.90;;;;;;5012728;28;20072;-74
2023/10/25 03:42:12;;;;;;;3.00;1.10;;;11.70;99.90;;;;;;5026855;28;20033;-74
2023/10/25 03:44:38;;;;;;;2.83;1.00;;;11.70;99.90;;;;;;5004358;28;20494;-75
2023/10/25 03:47:04;;;;;;;4.75;1.33;;;11.70;99.90;;;;;;5023265;28;20041;-75
2023/10/25 03:49:29;;;;;;;1.33;0.90;;;11.70;99.90;;;;;;5015515;28;20337;-75
2023/10/25 03:51:55;;;;;;;2.60;1.75;;;11.70;99.90;;;;;;5025719;28;20044;-75
2023/10/25 03:54:22;;;;;;;3.90;0.98;;;11.70;99.90;;;;;;5016164;28;20044;-76
2023/10/25 03:56:47;;;;;;;3.78;1.30;;;11.70;99.90;;;;;;5027807;28;20033;-75
2023/10/25 03:59:15;;;;;;;2.55;1.02;;;11.70;99.90;;;;;;5015308;28;20037;-75
2023/10/25 04:01:41;;;;;;;4.25;1.60;;;11.70;99.90;;;;;;5015776;28;20845;-76
2023/10/25 04:04:07;;;;;;;5.10;1.48;;;11.70;99.90;;;;;;5010917;28;20607;-75
2023/10/25 04:06:33;;;;;;;4.95;1.60;;;11.70;99.90;;;;;;5024395;28;20029;-75
2023/10/25 04:08:59;;;;;;;3.85;1.75;;;11.70;99.90;;;;;;5024254;28;20025;-76
2023/10/25 04:11:24;;;;;;;2.50;1.70;;;11.70;99.90;;;;;;4998955;28;20068;-76
2023/10/25 04:13:50;;;;;;;6.22;1.92;;;11.70;99.90;;;;;;5027445;28;21463;-76
2023/10/25 04:16:16;;;;;;;5.25;1.95;;;11.70;99.90;;;;;;5006672;28;20033;-75
2023/10/25 04:18:41;;;;;;;4.80;1.50;;;11.70;99.90;;;;;;5019173;28;20045;-75
2023/10/25 04:21:10;;;;;;;5.78;1.80;;;11.70;99.90;;;;;;5017431;28;20155;-77
2023/10/25 04:23:36;;;;;;;4.82;1.70;;;11.80;99.90;;;;;;5024927;28;20040;-76
2023/10/25 04:26:04;;;;;;;5.55;1.48;;;11.70;99.90;;;;;;5015506;28;20033;-75
2023/10/25 04:28:30;;;;;;;5.25;1.85;;;11.80;99.90;;;;;;5029629;28;20040;-76
2023/10/25 04:30:56;;;;;;;6.40;2.28;;;11.80;99.90;;;;;;5007997;28;20056;-76
2023/10/25 04:33:22;;;;;;;5.35;1.70;;;11.80;99.90;;;;;;5030858;28;20037;-75
2023/10/25 04:35:47;;;;;;;4.03;1.83;;;11.80;99.90;;;;;;5020075;28;20504;-76
2023/10/25 04:38:13;;;;;;;6.13;2.45;;;11.80;99.90;;;;;;5025410;28;20135;-76
2023/10/25 04:40:38;;;;;;;3.60;2.17;;;11.70;99.90;;;;;;5016880;28;20592;-76
2023/10/25 04:43:04;;;;;;;6.68;2.10;;;11.70;99.90;;;;;;5028492;28;20075;-76
2023/10/25 04:45:30;;;;;;;4.63;2.30;;;11.80;99.90;;;;;;5015703;28;20057;-77
2023/10/25 04:47:56;;;;;;;6.10;2.72;;;11.70;99.90;;;;;;5025092;28;20593;-76
2023/10/25 04:50:22;;;;;;;4.43;1.90;;;11.70;99.90;;;;;;5027816;28;20025;-75
2023/10/25 04:52:48;;;;;;;3.88;2.08;;;11.70;99.90;;;;;;5016349;28;21200;-76
2023/10/25 04:55:14;;;;;;;7.43;2.70;;;11.80;99.90;;;;;;5029460;28;20358;-76
2023/10/25 04:57:40;;;;;;;9.20;2.65;;;11.70;99.90;;;;;;5014430;28;20068;-75
2023/10/25 05:00:09;;;;;;;5.70;2.65;;;11.80;99.90;;;;;;5033963;28;20041;-75
2023/10/25 05:02:36;;;;;;;8.02;2.90;;;11.80;99.90;;;;;;5013737;28;20068;-75
2023/10/25 05:05:01;;;;;;;7.32;2.90;;;11.80;99.90;;;;;;5026037;28;20033;-75
2023/10/25 05:07:27;;;;;;;14.00;3.10;;;11.80;99.90;;;;;;5016612;28;20032;-74
2023/10/25 05:09:53;;;;;;;8.82;3.15;;;11.80;99.90;;;;;;5028950;28;20632;-75
2023/10/25 05:12:24;;;;;;;6.82;3.03;;;11.80;99.90;;;;;;5012377;28;20037;-75
2023/10/25 05:14:50;;;;;;;7.55;3.10;;;11.80;99.90;;;;;;5028403;28;20035;-76
2023/10/25 05:17:16;;;;;;;8.68;3.30;;;11.80;99.90;;;;;;5006662;28;20033;-76
2023/10/25 05:19:42;;;;;;;9.80;3.40;;;11.80;99.90;;;;;;5014407;28;20631;-76
2023/10/25 05:22:12;;;;;;;5.53;3.22;;;11.80;99.90;;;;;;5014787;28;20064;-76
2023/10/25 05:24:38;;;;;;;8.80;4.00;;;11.80;99.90;;;;;;5024163;28;20029;-75
2023/10/25 05:27:04;;;;;;;15.57;3.97;;;11.80;99.90;;;;;;4997577;28;20131;-76
2023/10/25 05:29:30;;;;;;;5.95;3.70;;;11.80;99.90;;;;;;5006869;28;20386;-76
2023/10/25 05:31:58;;;;;;;10.75;3.78;;;11.80;99.90;;;;;;5023975;28;20021;-76
2023/10/25 05:34:24;;;;;;;7.47;4.55;;;11.80;99.90;;;;;;5017185;28;20498;-76
2023/10/25 05:36:50;;;;;;;7.60;4.38;;;11.80;99.90;;;;;;5023695;28;20029;-76
2023/10/25 05:39:16;;;;;;;9.05;4.72;;;11.70;99.90;;;;;;5009576;28;20025;-77
2023/10/25 05:41:42;;;;;;;7.65;4.50;;;11.80;99.90;;;;;;5029368;28;20036;-76
2023/10/25 05:44:14;;;;;;;13.68;4.63;;;11.80;99.90;;;;;;5011659;28;20080;-77
2023/10/25 05:46:41;;;;;;;9.05;4.90;;;11.80;99.90;;;;;;5028414;28;20064;-77
2023/10/25 05:49:07;;;;;;;11.05;4.80;;;11.80;99.90;;;;;;5013766;28;20052;-76
2023/10/25 05:51:33;;;;;;;9.27;4.85;;;11.80;99.90;;;;;;5025748;28;20069;-76
2023/10/25 05:54:00;;;;;;;10.95;5.50;;;11.80;99.90;;;;;;5014343;28;20049;-76
2023/10/25 05:56:26;;;;;;;15.48;5.78;;;11.80;99.90;;;;;;5024989;28;20043;-76
2023/10/25 05:58:59;;;;;;;11.02;5.05;;;11.80;99.90;;;;;;5011476;28;20155;-77
2023/10/25 06:01:36;;;;;;;18.20;5.82;;;11.80;99.90;;;;;;5039508;28;21232;-77
2023/10/25 06:04:04;;;;;;;10.70;5.25;;;11.80;99.90;;;;;;5010824;28;20044;-77
2023/10/25 06:06:32;;;;;;;8.07;5.25;;;11.80;99.90;;;;;;5024358;28;20060;-78
2023/10/25 06:08:58;;;;;;;11.02;5.22;;;11.80;99.90;;;;;;5012515;28;20116;-77
2023/10/25 06:11:24;;;;;;;10.88;5.28;;;11.80;99.90;;;;;;5014966;28;20025;-75
2023/10/25 06:13:50;;;;;;;14.73;5.72;;;11.80;99.90;;;;;;5014284;28;20033;-76
2023/10/25 06:16:16;;;;;;;10.52;5.70;;;11.80;99.90;;;;;;5021362;28;20021;-76
2023/10/25 06:18:41;;;;;;;8.93;5.05;;;11.80;99.90;;;;;;5005932;28;20744;-76
2023/10/25 06:21:07;;;;;;;11.52;5.97;;;11.80;99.90;;;;;;5025055;28;20516;-75
2023/10/25 06:23:33;;;;;;;11.02;5.63;;;11.80;99.90;;;;;;5021626;28;20067;-76
2023/10/25 06:25:59;;;;;;;11.75;4.90;;;11.80;99.90;;;;;;5007902;28;20036;-77
2023/10/25 06:28:25;;;;;;;7.88;4.82;;;11.80;99.90;;;;;;5028660;28;20037;-76
2023/10/25 06:30:51;;;;;;;10.15;3.80;;;11.80;99.90;;;;;;5009236;28;20035;-77
2023/10/25 06:33:17;;;;;;;4.75;3.60;;;11.80;99.90;;;;;;5026196;28;20139;-77
2023/10/25 06:35:45;;;;;;;5.30;3.50;;;11.80;99.90;;;;;;5011596;28;21063;-77
2023/10/25 06:38:11;;;;;;;3.78;2.67;;;11.90;99.90;;;;;;5021111;28;20592;-76
2023/10/25 06:40:37;;;;;;;5.15;3.33;;;11.90;99.90;;;;;;5010059;28;20029;-77
2023/10/25 06:43:03;;;;;;;5.78;3.05;;;11.80;99.90;;;;;;5023119;28;20414;-77
2023/10/25 06:45:28;;;;;;;4.75;3.03;;;11.90;99.90;;;;;;5009380;28;20039;-76
2023/10/25 06:47:56;;;;;;;6.72;2.95;;;11.90;99.90;;;;;;5024832;28;20666;-76
2023/10/25 06:50:25;;;;;;;6.57;2.88;;;11.80;99.90;;;;;;5008783;28;20034;-76
2023/10/25 06:52:51;;;;;;;4.03;3.10;;;11.90;99.90;;;;;;5023992;28;20033;-75
2023/10/25 06:55:17;;;;;;;12.13;3.72;;;11.90;99.90;;;;;;5012023;28;20382;-75
2023/10/25 06:57:43;;;;;;;7.60;3.58;;;11.90;99.90;;;;;;5021604;28;20040;-76
2023/10/25 07:00:09;;;;;;;5.65;3.90;;;11.90;99.90;;;;;;5011825;28;20040;-74
2023/10/25 07:02:39;;;;;;;11.32;4.10;;;11.90;99.90;;;;;;5025483;28;20413;-75
2023/10/25 07:05:11;;;;;;;5.20;3.60;;;11.90;99.90;;;;;;5013996;28;20029;-75
2023/10/25 07:07:38;;;;;;;6.50;3.70;;;11.90;99.90;;;;;;5024659;28;20028;-75
2023/10/25 07:10:05;;;;;;;5.07;3.42;;;11.90;99.90;;;;;;5024727;28;20041;-75
2023/10/25 07:12:32;;;;;;;8.93;4.00;;;11.90;99.90;;;;;;5008442;28;20109;-76
2023/10/25 07:14:58;;;;;;;6.40;3.78;;;12.00;99.90;;;;;;5028770;28;20049;-75
2023/10/25 07:17:24;;;;;;;8.98;4.28;;;12.00;99.90;;;;;;5010649;28;20106;-74
2023/10/25 07:19:50;;;;;;;8.23;4.07;;;12.00;99.90;;;;;;5025077;28;20079;-74
2023/10/25 07:22:15;;;;;;;9.77;4.60;;;12.00;99.90;;;;;;5011717;28;20034;-74
2023/10/25 07:24:41;;;;;;;14.60;4.38;;;12.10;99.90;;;;;;5021210;28;20078;-74
2023/10/25 07:27:07;;;;;;;6.72;4.22;;;12.10;99.90;;;;;;5011579;28;21778;-75
2023/10/25 07:29:36;;;;;;;11.02;4.25;;;12.10;99.90;;;;;;5028005;28;20033;-76
2023/10/25 07:32:02;;;;;;;14.80;5.28;;;12.20;99.90;;;;;;5006478;28;20087;-76
2023/10/25 07:34:28;;;;;;;10.13;5.28;;;12.10;99.90;;;;;;5026651;28;20037;-74
2023/10/25 07:36:54;;;;;;;9.82;4.90;;;12.10;99.90;;;;;;5013579;28;21725;-74
2023/10/25 07:39:19;;;;;;;12.50;5.13;;;12.10;99.90;;;;;;5019407;28;20452;-74
2023/10/25 07:41:45;;;;;;;12.77;4.68;;;12.10;99.90;;;;;;5010596;28;20489;-74
2023/10/25 07:44:11;;;;;;;10.55;5.05;;;12.10;99.90;;;;;;5025394;28;20272;-74
2023/10/25 07:46:37;;;;;;;13.07;4.88;;;12.20;99.90;;;;;;5011459;28;20036;-74
2023/10/25 07:49:03;;;;;;;5.07;3.88;;;12.20;99.90;;;;;;5022960;28;20102;-74
2023/10/25 07:51:29;;;;;;;9.10;4.60;;;12.20;99.90;;;;;;5019699;28;21024;-74
2023/10/25 07:53:54;;;;;;;9.52;4.38;;;12.20;99.90;;;;;;5013129;28;20128;-74
2023/10/25 07:56:20;;;;;;;11.65;4.40;;;12.20;99.90;;;;;;5025341;28;20037;-74
2023/10/25 07:58:46;;;;;;;13.70;4.45;;;12.20;99.90;;;;;;5007992;28;20026;-74
2023/10/25 08:01:13;;;;;;;7.22;4.05;;;12.20;99.90;;;;;;5028173;28;20379;-74
2023/10/25 08:03:38;;;;;;;10.38;4.32;;;12.20;99.90;;;;;;5012348;28;20035;-74
2023/10/25 08:06:05;;;;;;;8.93;3.83;;;12.30;99.90;;;;;;5024102;28;20033;-75
2023/10/25 08:08:32;;;;;;;8.30;3.72;;;12.30;99.90;;;;;;5011791;28;20469;-74
2023/10/25 08:11:01;;;;;;;7.03;4.07;;;12.30;99.90;;;;;;5026691;28;20516;-75
2023/10/25 08:13:26;;;;;;;9.98;4.30;;;12.30;99.90;;;;;;5015112;28;20083;-75
2023/10/25 08:16:01;;;;;;;13.23;4.53;;;12.30;99.90;;;;;;5030642;28;20394;-74
2023/10/25 08:18:28;;;;;;;8.25;3.72;;;12.40;99.90;;;;;;5008384;28;20286;-74
2023/10/25 08:20:54;;;;;;;8.63;4.18;;;12.30;99.90;;;;;;5029952;28;20151;-74
2023/10/25 08:23:20;;;;;;;10.25;4.78;;;12.40;99.90;;;;;;5014805;28;20060;-74
2023/10/25 08:25:46;;;;;;;7.45;3.92;;;12.40;99.90;;;;;;5016647;28;20120;-74
2023/10/25 08:28:12;;;;;;;15.88;4.47;;;12.40;99.90;;;;;;5013137;28;20090;-73
2023/10/25 08:30:37;;;;;;;9.02;3.67;;;12.40;99.90;;;;;;5026196;28;21554;-74
2023/10/25 08:33:03;;;;;;;6.70;3.83;;;12.40;99.90;;;;;;5012461;28;20479;-74
2023/10/25 08:35:31;;;;;;;12.48;3.80;;;12.40;99.90;;;;;;5024971;28;20041;-74
2023/10/25 08:37:57;;;;;;;9.20;4.38;;;12.40;99.90;;;;;;5025038;28;20032;-74
2023/10/25 08:40:27;;;;;;;10.18;4.13;;;12.40;99.90;;;;;;5017071;28;20025;-74
2023/10/25 08:42:53;;;;;;;8.95;4.18;;;12.40;99.90;;;;;;5040937;28;20382;-74
2023/10/25 08:45:24;;;;;;;8.52;3.50;;;12.40;99.90;;;;;;5030652;28;20045;-74
2023/10/25 08:47:50;;;;;;;9.82;4.05;;;12.40;99.90;;;;;;5023717;28;20425;-74
2023/10/25 08:50:20;;;;;;;15.85;4.40;;;12.50;99.90;;;;;;5012762;28;20564;-74
2023/10/25 08:52:48;;;;;;;;;;;12.50;99.90;;;;;;5018591;28;20511;-74
2023/10/25 08:55:14;;;;;;;9.73;4.03;;;12.50;99.90;;;;;;5014526;28;20031;-74
2023/10/25 08:57:40;;;;;;;7.30;4.05;;;12.40;99.90;;;;;;5023119;28;20036;-74
2023/10/25 09:00:08;;;;;;;13.18;3.95;;;12.50;99.90;;;;;;5013477;28;20040;-74
2023/10/25 09:02:36;;;;;;;9.10;3.95;;;12.50;99.90;;;;;;5025042;28;20041;-74
2023/10/25 09:05:03;;;;;;;14.68;5.00;;;12.50;99.90;;;;;;5006654;28;20032;-74
2023/10/25 09:07:31;;;;;;;11.45;4.25;;;12.50;99.90;;;;;;5028515;28;20029;-74
2023/10/25 09:09:58;;;;;;;6.65;4.50;;;12.50;99.90;;;;;;5012582;28;20021;-74
2023/10/25 09:12:24;;;;;;;6.25;3.65;;;12.60;99.90;;;;;;5010442;28;20929;-74
2023/10/25 09:14:50;;;;;;;7.05;3.80;;;12.70;99.90;;;;;;5008403;28;20040;-74
2023/10/25 09:17:16;;;;;;;9.85;4.35;;;12.80;99.90;;;;;;5021020;28;20042;-74
2023/10/25 09:19:46;;;;;;;6.45;3.53;;;13.00;99.90;;;;;;4993578;28;20087;-74
2023/10/25 09:22:22;;;;;;;13.57;4.15;;;13.10;99.90;;;;;;5025185;28;20140;-74
2023/10/25 09:24:49;;;;;;;6.72;3.55;;;13.20;99.90;;;;;;5008825;28;20315;-74
2023/10/25 09:27:14;;;;;;;9.75;3.33;;;13.30;99.90;;;;;;5019989;28;20033;-74
2023/10/25 09:29:40;;;;;;;5.93;3.30;;;13.50;99.90;;;;;;5027478;28;20033;-74
2023/10/25 09:32:07;;;;;;;14.68;4.10;;;13.50;99.90;;;;;;5008722;28;20233;-73
2023/10/25 09:34:36;;;;;;;7.80;3.47;;;13.60;99.90;;;;;;5031667;28;20037;-74
2023/10/25 09:37:04;;;;;;;5.28;2.78;;;13.60;99.90;;;;;;5019892;28;20067;-74
2023/10/25 09:39:32;;;;;;;5.75;3.15;;;13.60;99.90;;;;;;5020376;28;20037;-74
2023/10/25 09:42:02;;;;;;;9.35;3.30;;;13.60;99.90;;;;;;5011219;28;20489;-73
2023/10/25 09:44:31;;;;;;;6.05;3.05;;;13.60;99.90;;;;;;5021620;28;20486;-74
2023/10/25 09:46:59;;;;;;;7.40;3.35;;;13.60;99.90;;;;;;5009006;28;20029;-76
2023/10/25 09:49:30;;;;;;;5.85;3.00;;;13.60;99.90;;;;;;5021598;28;20061;-73
2023/10/25 09:52:06;;;;;;;8.57;3.65;;;13.60;99.90;;;;;;5007740;28;20553;-75
2023/10/25 09:54:33;;;;;;;7.22;4.07;;;13.70;99.90;;;;;;5026426;28;20041;-75
2023/10/25 09:57:02;;;;;;;6.40;4.05;;;13.70;99.90;;;;;;5009407;28;20095;-74
2023/10/25 09:59:30;;;;;;;11.63;5.18;;;13.80;99.90;;;;;;5021709;28;20428;-74
2023/10/25 10:01:56;;;;;;;12.93;4.60;;;13.80;99.90;;;;;;5012494;28;20072;-75
2023/10/25 10:04:36;;;;;;;10.60;4.30;;;13.90;99.90;;;;;;5028363;28;20045;-74
2023/10/25 10:07:22;;;;;;;11.95;5.78;;;13.90;99.90;;;;;;5010673;28;20025;-75
2023/10/25 10:09:56;;;;;;;7.53;4.63;;;13.80;99.90;;;;;;5023949;28;21688;-74
2023/10/25 10:12:22;;;;;;;10.18;4.82;;;13.80;99.90;;;;;;5006769;28;20568;-75
2023/10/25 10:14:48;;;;;;;12.23;5.15;;;13.70;99.90;;;;;;5023214;28;20033;-74
2023/10/25 10:17:16;;;;;;;8.02;4.10;;;13.80;99.90;;;;;;4991686;28;20043;-74
2023/10/25 10:19:44;;;;;;;8.98;4.38;;;13.80;99.90;;;;;;5020835;28;20042;-75
2023/10/25 10:22:12;;;;;;;12.07;4.45;;;13.90;99.90;;;;;;5013141;28;20029;-75
2023/10/25 10:24:44;;;;;;;7.05;4.03;;;14.00;99.90;;;;;;5022752;28;20029;-74
2023/10/25 10:27:13;;;;;;;8.93;3.38;;;14.00;99.90;;;;;;5009315;28;20436;-75
2023/10/25 10:29:40;;;;;;;7.82;3.90;;;14.00;99.90;;;;;;5022362;28;20404;-74
2023/10/25 10:32:07;;;;;;;8.23;3.20;;;14.10;99.90;;;;;;5004761;28;20032;-75
2023/10/25 10:34:59;;;;;;;7.68;2.97;;;14.20;99.80;;;;;;5029162;28;20124;-73
2023/10/25 10:37:29;;;;;;;8.45;2.90;;;14.20;99.60;;;;;;5012396;28;20048;-73
2023/10/25 10:39:55;;;;;;;8.48;3.42;;;14.00;99.20;;;;;;5018845;28;20156;-74
2023/10/25 10:42:34;;;;;;;4.35;2.95;;;14.00;99.90;;;;;;5014089;28;20055;-73
2023/10/25 10:45:02;;;;;;;10.32;3.40;;;14.00;99.80;;;;;;5022881;28;20033;-73
2023/10/25 10:47:44;;;;;;;7.10;3.40;;;14.00;99.90;;;;;;5013116;28;20064;-73
2023/10/25 10:50:14;;;;;;;7.15;3.08;;;14.00;99.90;;;;;;5027121;28;20056;-73
2023/10/25 10:52:41;;;;;;;9.85;4.15;;;13.90;99.90;;;;;;5009836;28;20040;-73
2023/10/25 10:55:08;;;;;;;8.55;3.38;;;14.00;99.90;;;;;;5024493;28;20068;-74
2023/10/25 10:57:36;;;;;;;7.35;3.13;;;14.20;99.90;;;;;;5022538;28;20068;-73
2023/10/25 11:00:04;;;;;;;7.45;2.85;;;14.50;99.60;;;;;;5008361;28;20038;-73
2023/10/25 11:02:30;;;;;;;6.72;3.22;;;14.60;98.60;;;;;;5023801;28;20037;-73
2023/10/25 11:04:55;;;;;;;3.15;2.08;;;14.70;98.30;;;;;;5012307;28;20059;-74
2023/10/25 11:07:21;;;;;;;6.18;3.00;;;14.80;98.10;;;;;;5023478;28;20568;-73
2023/10/25 11:09:47;;;;;;;4.50;2.38;;;14.90;98.00;;;;;;5013304;28;20044;-73
2023/10/25 11:12:14;;;;;;;7.88;2.35;;;14.90;97.20;;;;;;5020453;28;20323;-73
2023/10/25 11:14:43;;;;;;;7.15;2.75;;;14.90;97.70;;;;;;5007784;28;20056;-73
2023/10/25 11:17:09;;;;;;;8.57;2.40;;;14.90;98.00;;;;;;5021161;28;20034;-73
2023/10/25 11:19:35;;;;;;;6.22;2.28;;;14.80;97.40;;;;;;5005352;28;20045;-73
2023/10/25 11:22:01;;;;;;;4.50;1.77;;;14.60;97.10;;;;;;5025344;28;20029;-73
2023/10/25 11:24:27;;;;;;;3.25;2.35;;;14.60;97.30;;;;;;5015851;28;20023;-74
2023/10/25 11:26:53;;;;;;;6.97;2.47;;;14.60;97.70;;;;;;5049500;28;20049;-73
2023/10/25 11:29:20;;;;;;;5.95;2.05;;;14.80;97.40;;;;;;5016217;28;20079;-73
2023/10/25 11:31:49;;;;;;;5.50;2.38;;;14.90;97.00;;;;;;5021899;28;20110;-73
2023/10/25 11:34:19;;;;;;;6.20;1.98;;;14.90;97.30;;;;;;5010947;28;20698;-73
2023/10/25 11:36:47;;;;;;;6.05;2.00;;;15.10;97.40;;;;;;5024371;28;20028;-73
2023/10/25 11:39:13;;;;;;;3.38;1.75;;;15.20;96.60;;;;;;5012423;28;20393;-73
2023/10/25 11:41:40;;;;;;;4.18;1.67;;;15.20;96.30;;;;;;5025180;28;20040;-73
2023/10/25 11:44:06;;;;;;;3.95;1.70;;;15.20;95.90;;;;;;5027892;28;20033;-73
2023/10/25 11:46:35;;;;;;;6.55;2.20;;;15.10;96.30;;;;;;5004575;28;20037;-73
2023/10/25 11:49:02;;;;;;;4.47;1.45;;;15.00;96.00;;;;;;5022431;28;20053;-73
2023/10/25 11:51:28;;;;;;;10.32;4.53;;;15.00;95.70;;;;;;5009730;28;20036;-72
2023/10/25 11:53:54;;;;;;;9.18;4.90;;;15.10;95.90;;;;;;5021880;28;20037;-73
2023/10/25 11:56:21;;;;;;;5.03;2.80;;;15.40;95.90;;;;;;5010442;28;20061;-73
2023/10/25 11:58:47;;;;;;;4.28;2.00;;;15.20;95.70;;;;;;5019440;28;20063;-72
2023/10/25 12:01:13;;;;;;;4.88;2.67;;;15.30;95.90;;;;;;5006287;28;20399;-72
2023/10/25 12:03:40;;;;;;;4.53;2.58;;;15.40;95.20;;;;;;5021947;28;20091;-72
2023/10/25 12:06:06;;;;;;;18.52;5.97;;;15.50;95.50;;;;;;5006415;28;20396;-72
2023/10/25 12:08:32;;;;;;;14.57;5.65;;;15.80;95.60;;;;;;5026326;28;20033;-73
2023/10/25 12:10:58;;;;;;;17.80;6.80;;;16.10;95.30;;;;;;5013420;28;20029;-72
2023/10/25 12:13:23;;;;;;;8.48;3.45;;;16.30;94.00;;;;;;5018802;28;20048;-73
2023/10/25 12:15:50;;;;;;;6.35;2.47;;;16.30;93.00;;;;;;5008370;28;20251;-72
2023/10/25 12:18:16;;;;;;;4.43;2.70;;;16.30;93.30;;;;;;5021923;28;20022;-72
2023/10/25 12:20:42;;;;;;;4.45;2.70;;;16.20;94.30;;;;;;5006818;28;20029;-72
2023/10/25 12:23:08;;;;;;;6.03;3.35;;;16.00;94.10;;;;;;5020662;28;20076;-72
2023/10/25 12:25:37;;;;;;;6.90;3.40;;;15.80;94.30;;;;;;5017131;28;20029;-73
2023/10/25 12:28:04;;;;;;;7.43;3.40;;;15.70;95.00;;;;;;5010846;28;20035;-72
2023/10/25 12:30:30;;;;;;;17.33;7.80;;;15.70;94.40;;;;;;5021137;28;20036;-72
2023/10/25 12:32:56;;;;;;;9.05;4.20;;;15.80;95.00;;;;;;5005966;28;20037;-72
2023/10/25 12:35:22;;;;;;;5.65;3.30;;;15.90;94.70;;;;;;5020852;28;20029;-72
2023/10/25 12:37:47;;;;;;;6.63;3.60;;;15.70;94.10;;;;;;5012414;28;20041;-72
2023/10/25 12:40:13;;;;;;;7.13;3.47;;;15.40;94.60;;;;;;5017853;28;20044;-72
2023/10/25 12:42:39;;;;;;;4.97;2.95;;;15.40;94.70;;;;;;5013841;28;20052;-72